sensor_id;sensor_type;location;lat;lon;timestamp;P1;durP1;ratioP1;P2;durP2;ratioP2
8458;SDS011;4266;48.816;9.154;2023-12-20T00:01:21;3.10;;;2.90;;
8458;SDS011;4266;48.816;9.154;2023-12-20T00:03:46;3.30;;;3.10;;
8458;SDS011;4266;48.816;9.154;2023-12-20T00:06:12;2.83;;;2.73;;
8458;SDS011;4266;48.816;9.154;2023-12-20T00:08:38;3.33;;;3.03;;
8458;SDS011;4266;48.816;9.154;2023-12-20T00:11:03;3.10;;;2.90;;
8458;SDS011;4266;48.816;9.154;2023-12-20T00:13:30;3.50;;;2.60;;
8458;SDS011;4266;48.816;9.154;2023-12-20T00:15:55;3.20;;;3.00;;
8458;SDS011;4266;48.816;9.154;2023-12-20T00:18:21;3.17;;;3.07;;
8458;SDS011;4266;48.816;9.154;2023-12-20T00:20:47;2.97;;;2.77;;
8458;SDS011;4266;48.816;9.154;2023-12-20T00:23:12;2.80;;;2.70;;
8458;SDS011;4266;48.816;9.154;2023-12-20T00:25:38;2.97;;;2.87;;
8458;SDS011;4266;48.816;9.154;2023-12-20T00:28:04;3.00;;;2.80;;
8458;SDS011;4266;48.816;9.154;2023-12-20T00:30:29;2.80;;;2.60;;
8458;SDS011;4266;48.816;9.154;2023-12-20T00:32:56;3.00;;;2.80;;
8458;SDS011;4266;48.816;9.154;2023-12-20T00:35:21;3.20;;;3.00;;
8458;SDS011;4266;48.816;9.154;2023-12-20T00:37:48;3.00;;;2.90;;
8458;SDS011;4266;48.816;9.154;2023-12-20T00:40:13;2.77;;;2.67;;
8458;SDS011;4266;48.816;9.154;2023-12-20T00:42:39;3.10;;;2.90;;
8458;SDS011;4266;48.816;9.154;2023-12-20T00:45:05;2.93;;;2.83;;
8458;SDS011;4266;48.816;9.154;2023-12-20T00:47:32;3.07;;;2.87;;
8458;SDS011;4266;48.816;9.154;2023-12-20T00:49:58;3.23;;;3.00;;
8458;SDS011;4266;48.816;9.154;2023-12-20T00:52:24;3.00;;;2.80;;
8458;SDS011;4266;48.816;9.154;2023-12-20T00:54:50;3.20;;;3.00;;
8458;SDS011;4266;48.816;9.154;2023-12-20T00:57:15;3.50;;;3.07;;
8458;SDS011;4266;48.816;9.154;2023-12-20T00:59:41;3.00;;;2.80;;
8458;SDS011;4266;48.816;9.154;2023-12-20T01:02:07;3.00;;;2.90;;
8458;SDS011;4266;48.816;9.154;2023-12-20T01:04:33;2.83;;;2.73;;
8458;SDS011;4266;48.816;9.154;2023-12-20T01:06:59;3.07;;;2.90;;
8458;SDS011;4266;48.816;9.154;2023-12-20T01:09:25;3.03;;;2.80;;
8458;SDS011;4266;48.816;9.154;2023-12-20T01:11:53;3.00;;;2.90;;
8458;SDS011;4266;48.816;9.154;2023-12-20T01:14:19;3.40;;;3.20;;
8458;SDS011;4266;48.816;9.154;2023-12-20T01:16:45;4.23;;;3.03;;
8458;SDS011;4266;48.816;9.154;2023-12-20T01:19:10;3.10;;;2.90;;
8458;SDS011;4266;48.816;9.154;2023-12-20T01:21:36;3.47;;;3.17;;
8458;SDS011;4266;48.816;9.154;2023-12-20T01:24:02;3.53;;;3.33;;
8458;SDS011;4266;48.816;9.154;2023-12-20T01:26:27;3.20;;;3.00;;
8458;SDS011;4266;48.816;9.154;2023-12-20T01:28:53;3.10;;;2.90;;
8458;SDS011;4266;48.816;9.154;2023-12-20T01:31:26;3.43;;;3.10;;
8458;SDS011;4266;48.816;9.154;2023-12-20T01:33:52;3.40;;;3.20;;
8458;SDS011;4266;48.816;9.154;2023-12-20T01:36:17;3.13;;;2.93;;
8458;SDS011;4266;48.816;9.154;2023-12-20T01:38:43;4.23;;;3.70;;
8458;SDS011;4266;48.816;9.154;2023-12-20T01:41:09;3.50;;;3.23;;
8458;SDS011;4266;48.816;9.154;2023-12-20T01:43:34;3.17;;;2.90;;
8458;SDS011;4266;48.816;9.154;2023-12-20T01:46:01;4.03;;;2.97;;
8458;SDS011;4266;48.816;9.154;2023-12-20T01:48:26;2.90;;;2.70;;
8458;SDS011;4266;48.816;9.154;2023-12-20T01:50:53;3.03;;;2.87;;
8458;SDS011;4266;48.816;9.154;2023-12-20T01:53:19;3.20;;;2.83;;
8458;SDS011;4266;48.816;9.154;2023-12-20T01:55:44;3.00;;;2.90;;
8458;SDS011;4266;48.816;9.154;2023-12-20T01:58:10;3.60;;;3.30;;
8458;SDS011;4266;48.816;9.154;2023-12-20T02:00:36;2.90;;;2.80;;
8458;SDS011;4266;48.816;9.154;2023-12-20T02:03:01;3.10;;;2.83;;
8458;SDS011;4266;48.816;9.154;2023-12-20T02:05:27;3.33;;;3.07;;
8458;SDS011;4266;48.816;9.154;2023-12-20T02:07:52;3.20;;;2.90;;
8458;SDS011;4266;48.816;9.154;2023-12-20T02:10:18;3.40;;;3.20;;
8458;SDS011;4266;48.816;9.154;2023-12-20T02:12:44;3.27;;;3.07;;
8458;SDS011;4266;48.816;9.154;2023-12-20T02:15:09;3.30;;;3.10;;
8458;SDS011;4266;48.816;9.154;2023-12-20T02:17:36;5.10;;;3.30;;
8458;SDS011;4266;48.816;9.154;2023-12-20T02:20:02;3.50;;;3.30;;
8458;SDS011;4266;48.816;9.154;2023-12-20T02:22:27;3.20;;;3.00;;
8458;SDS011;4266;48.816;9.154;2023-12-20T02:24:53;3.90;;;3.50;;
8458;SDS011;4266;48.816;9.154;2023-12-20T02:27:20;3.10;;;2.90;;
8458;SDS011;4266;48.816;9.154;2023-12-20T02:29:46;3.33;;;3.13;;
8458;SDS011;4266;48.816;9.154;2023-12-20T02:32:11;3.50;;;3.20;;
8458;SDS011;4266;48.816;9.154;2023-12-20T02:34:37;3.67;;;3.33;;
8458;SDS011;4266;48.816;9.154;2023-12-20T02:37:02;2.97;;;2.77;;
8458;SDS011;4266;48.816;9.154;2023-12-20T02:39:29;3.83;;;3.23;;
8458;SDS011;4266;48.816;9.154;2023-12-20T02:41:54;3.17;;;3.07;;
8458;SDS011;4266;48.816;9.154;2023-12-20T02:44:20;3.80;;;3.40;;
8458;SDS011;4266;48.816;9.154;2023-12-20T02:46:46;3.23;;;3.03;;
8458;SDS011;4266;48.816;9.154;2023-12-20T02:49:11;3.20;;;3.00;;
8458;SDS011;4266;48.816;9.154;2023-12-20T02:51:37;3.33;;;2.90;;
8458;SDS011;4266;48.816;9.154;2023-12-20T02:54:04;3.37;;;3.17;;
8458;SDS011;4266;48.816;9.154;2023-12-20T02:56:29;3.10;;;3.00;;
8458;SDS011;4266;48.816;9.154;2023-12-20T02:58:55;3.17;;;2.93;;
8458;SDS011;4266;48.816;9.154;2023-12-20T03:01:21;2.93;;;2.40;;
8458;SDS011;4266;48.816;9.154;2023-12-20T03:03:47;2.60;;;2.50;;
8458;SDS011;4266;48.816;9.154;2023-12-20T03:06:17;2.57;;;2.47;;
8458;SDS011;4266;48.816;9.154;2023-12-20T03:08:42;2.93;;;2.20;;
8458;SDS011;4266;48.816;9.154;2023-12-20T03:11:08;2.60;;;2.40;;
8458;SDS011;4266;48.816;9.154;2023-12-20T03:13:34;1.90;;;1.90;;
8458;SDS011;4266;48.816;9.154;2023-12-20T03:15:59;2.20;;;2.10;;
8458;SDS011;4266;48.816;9.154;2023-12-20T03:18:26;1.90;;;1.83;;
8458;SDS011;4266;48.816;9.154;2023-12-20T03:20:51;6.57;;;1.97;;
8458;SDS011;4266;48.816;9.154;2023-12-20T03:23:17;2.00;;;2.00;;
8458;SDS011;4266;48.816;9.154;2023-12-20T03:25:43;1.93;;;1.87;;
8458;SDS011;4266;48.816;9.154;2023-12-20T03:28:08;1.93;;;1.83;;
8458;SDS011;4266;48.816;9.154;2023-12-20T03:30:34;2.30;;;2.10;;
8458;SDS011;4266;48.816;9.154;2023-12-20T03:33:00;1.80;;;1.80;;
8458;SDS011;4266;48.816;9.154;2023-12-20T03:35:25;1.80;;;1.80;;
8458;SDS011;4266;48.816;9.154;2023-12-20T03:37:51;2.00;;;1.90;;
8458;SDS011;4266;48.816;9.154;2023-12-20T03:40:17;1.60;;;1.60;;
8458;SDS011;4266;48.816;9.154;2023-12-20T03:42:43;1.70;;;1.70;;
8458;SDS011;4266;48.816;9.154;2023-12-20T03:45:09;1.50;;;1.50;;
8458;SDS011;4266;48.816;9.154;2023-12-20T03:47:34;1.63;;;1.63;;
8458;SDS011;4266;48.816;9.154;2023-12-20T03:50:01;2.10;;;2.03;;
8458;SDS011;4266;48.816;9.154;2023-12-20T03:52:27;1.70;;;1.70;;
8458;SDS011;4266;48.816;9.154;2023-12-20T03:54:53;1.80;;;1.80;;
8458;SDS011;4266;48.816;9.154;2023-12-20T03:57:19;1.70;;;1.70;;
8458;SDS011;4266;48.816;9.154;2023-12-20T03:59:45;1.90;;;1.90;;
8458;SDS011;4266;48.816;9.154;2023-12-20T04:02:11;1.77;;;1.77;;
8458;SDS011;4266;48.816;9.154;2023-12-20T04:04:37;2.40;;;1.80;;
8458;SDS011;4266;48.816;9.154;2023-12-20T04:07:03;1.90;;;1.80;;
8458;SDS011;4266;48.816;9.154;2023-12-20T04:09:28;1.80;;;1.80;;
8458;SDS011;4266;48.816;9.154;2023-12-20T04:11:55;1.63;;;1.63;;
8458;SDS011;4266;48.816;9.154;2023-12-20T04:14:21;2.20;;;2.10;;
8458;SDS011;4266;48.816;9.154;2023-12-20T04:16:47;1.93;;;1.83;;
8458;SDS011;4266;48.816;9.154;2023-12-20T04:19:13;1.80;;;1.80;;
8458;SDS011;4266;48.816;9.154;2023-12-20T04:21:39;1.80;;;1.80;;
8458;SDS011;4266;48.816;9.154;2023-12-20T04:24:05;2.00;;;1.90;;
8458;SDS011;4266;48.816;9.154;2023-12-20T04:26:31;1.90;;;1.90;;
8458;SDS011;4266;48.816;9.154;2023-12-20T04:28:56;1.87;;;1.87;;
8458;SDS011;4266;48.816;9.154;2023-12-20T04:31:22;1.93;;;1.93;;
8458;SDS011;4266;48.816;9.154;2023-12-20T04:33:48;2.00;;;2.00;;
8458;SDS011;4266;48.816;9.154;2023-12-20T04:36:13;2.13;;;2.03;;
8458;SDS011;4266;48.816;9.154;2023-12-20T04:38:40;2.17;;;1.97;;
8458;SDS011;4266;48.816;9.154;2023-12-20T04:41:05;1.93;;;1.90;;
8458;SDS011;4266;48.816;9.154;2023-12-20T04:43:31;2.00;;;1.90;;
8458;SDS011;4266;48.816;9.154;2023-12-20T04:45:57;2.20;;;2.10;;
8458;SDS011;4266;48.816;9.154;2023-12-20T04:48:22;1.80;;;1.80;;
8458;SDS011;4266;48.816;9.154;2023-12-20T04:50:48;2.00;;;2.00;;
8458;SDS011;4266;48.816;9.154;2023-12-20T04:53:14;2.00;;;1.90;;
8458;SDS011;4266;48.816;9.154;2023-12-20T04:55:40;1.80;;;1.80;;
8458;SDS011;4266;48.816;9.154;2023-12-20T04:58:06;1.80;;;1.70;;
8458;SDS011;4266;48.816;9.154;2023-12-20T05:00:32;2.10;;;2.10;;
8458;SDS011;4266;48.816;9.154;2023-12-20T05:02:58;2.10;;;1.93;;
8458;SDS011;4266;48.816;9.154;2023-12-20T05:05:24;2.00;;;1.90;;
8458;SDS011;4266;48.816;9.154;2023-12-20T05:07:50;1.87;;;1.83;;
8458;SDS011;4266;48.816;9.154;2023-12-20T05:10:15;6.83;;;2.10;;
8458;SDS011;4266;48.816;9.154;2023-12-20T05:12:41;1.80;;;1.70;;
8458;SDS011;4266;48.816;9.154;2023-12-20T05:15:07;2.10;;;2.00;;
8458;SDS011;4266;48.816;9.154;2023-12-20T05:17:34;2.23;;;2.13;;
8458;SDS011;4266;48.816;9.154;2023-12-20T05:19:59;1.90;;;1.80;;
8458;SDS011;4266;48.816;9.154;2023-12-20T05:22:25;2.20;;;2.10;;
8458;SDS011;4266;48.816;9.154;2023-12-20T05:24:51;1.90;;;1.90;;
8458;SDS011;4266;48.816;9.154;2023-12-20T05:27:17;2.30;;;2.20;;
8458;SDS011;4266;48.816;9.154;2023-12-20T05:29:43;1.90;;;1.90;;
8458;SDS011;4266;48.816;9.154;2023-12-20T05:32:08;1.90;;;1.80;;
8458;SDS011;4266;48.816;9.154;2023-12-20T05:34:34;2.10;;;1.90;;
8458;SDS011;4266;48.816;9.154;2023-12-20T05:37:00;2.37;;;2.27;;
8458;SDS011;4266;48.816;9.154;2023-12-20T05:39:25;1.97;;;1.97;;
8458;SDS011;4266;48.816;9.154;2023-12-20T05:41:51;2.20;;;2.00;;
8458;SDS011;4266;48.816;9.154;2023-12-20T05:44:17;1.40;;;1.40;;
8458;SDS011;4266;48.816;9.154;2023-12-20T05:46:43;1.63;;;1.63;;
8458;SDS011;4266;48.816;9.154;2023-12-20T05:49:09;1.83;;;1.80;;
8458;SDS011;4266;48.816;9.154;2023-12-20T05:51:34;2.50;;;2.30;;
8458;SDS011;4266;48.816;9.154;2023-12-20T05:54:00;2.17;;;2.03;;
8458;SDS011;4266;48.816;9.154;2023-12-20T05:56:26;1.87;;;1.77;;
8458;SDS011;4266;48.816;9.154;2023-12-20T05:58:51;1.60;;;1.60;;
8458;SDS011;4266;48.816;9.154;2023-12-20T06:01:18;1.70;;;1.60;;
8458;SDS011;4266;48.816;9.154;2023-12-20T06:03:44;1.93;;;1.83;;
8458;SDS011;4266;48.816;9.154;2023-12-20T06:06:10;1.80;;;1.70;;
8458;SDS011;4266;48.816;9.154;2023-12-20T06:08:36;2.00;;;1.90;;
8458;SDS011;4266;48.816;9.154;2023-12-20T06:11:01;2.53;;;2.00;;
8458;SDS011;4266;48.816;9.154;2023-12-20T06:13:27;2.20;;;2.00;;
8458;SDS011;4266;48.816;9.154;2023-12-20T06:15:54;2.10;;;2.00;;
8458;SDS011;4266;48.816;9.154;2023-12-20T06:18:19;1.90;;;1.80;;
8458;SDS011;4266;48.816;9.154;2023-12-20T06:20:45;2.00;;;1.90;;
8458;SDS011;4266;48.816;9.154;2023-12-20T06:23:11;2.00;;;1.90;;
8458;SDS011;4266;48.816;9.154;2023-12-20T06:25:36;2.10;;;2.00;;
8458;SDS011;4266;48.816;9.154;2023-12-20T06:28:02;2.20;;;1.97;;
8458;SDS011;4266;48.816;9.154;2023-12-20T06:30:28;2.30;;;2.10;;
8458;SDS011;4266;48.816;9.154;2023-12-20T06:32:54;2.37;;;2.17;;
8458;SDS011;4266;48.816;9.154;2023-12-20T06:35:20;3.63;;;2.20;;
8458;SDS011;4266;48.816;9.154;2023-12-20T06:37:46;3.53;;;1.83;;
8458;SDS011;4266;48.816;9.154;2023-12-20T06:40:11;2.40;;;2.30;;
8458;SDS011;4266;48.816;9.154;2023-12-20T06:42:37;2.17;;;2.07;;
8458;SDS011;4266;48.816;9.154;2023-12-20T06:45:03;2.20;;;2.07;;
8458;SDS011;4266;48.816;9.154;2023-12-20T06:47:30;1.93;;;1.83;;
8458;SDS011;4266;48.816;9.154;2023-12-20T06:49:56;2.07;;;1.97;;
8458;SDS011;4266;48.816;9.154;2023-12-20T06:52:21;2.13;;;2.03;;
8458;SDS011;4266;48.816;9.154;2023-12-20T06:54:47;2.17;;;2.07;;
8458;SDS011;4266;48.816;9.154;2023-12-20T06:57:14;2.10;;;2.00;;
8458;SDS011;4266;48.816;9.154;2023-12-20T06:59:40;3.77;;;2.13;;
8458;SDS011;4266;48.816;9.154;2023-12-20T07:02:05;2.60;;;2.37;;
8458;SDS011;4266;48.816;9.154;2023-12-20T07:04:31;3.23;;;2.20;;
8458;SDS011;4266;48.816;9.154;2023-12-20T07:06:56;3.50;;;2.33;;
8458;SDS011;4266;48.816;9.154;2023-12-20T07:09:22;2.53;;;2.43;;
8458;SDS011;4266;48.816;9.154;2023-12-20T07:11:48;3.10;;;2.90;;
8458;SDS011;4266;48.816;9.154;2023-12-20T07:14:13;4.17;;;2.90;;
8458;SDS011;4266;48.816;9.154;2023-12-20T07:16:39;3.10;;;2.90;;
8458;SDS011;4266;48.816;9.154;2023-12-20T07:19:05;3.40;;;3.20;;
8458;SDS011;4266;48.816;9.154;2023-12-20T07:21:30;3.40;;;3.20;;
8458;SDS011;4266;48.816;9.154;2023-12-20T07:23:57;4.70;;;3.90;;
8458;SDS011;4266;48.816;9.154;2023-12-20T07:26:22;3.57;;;3.37;;
8458;SDS011;4266;48.816;9.154;2023-12-20T07:28:48;5.63;;;3.23;;
8458;SDS011;4266;48.816;9.154;2023-12-20T07:31:15;3.43;;;3.23;;
8458;SDS011;4266;48.816;9.154;2023-12-20T07:33:39;3.57;;;3.37;;
8458;SDS011;4266;48.816;9.154;2023-12-20T07:36:05;3.22;;;3.03;;
8458;SDS011;4266;48.816;9.154;2023-12-20T07:38:31;3.50;;;3.30;;
8458;SDS011;4266;48.816;9.154;2023-12-20T07:40:57;3.57;;;3.37;;
8458;SDS011;4266;48.816;9.154;2023-12-20T07:43:22;3.80;;;3.37;;
8458;SDS011;4266;48.816;9.154;2023-12-20T07:45:48;4.33;;;4.13;;
8458;SDS011;4266;48.816;9.154;2023-12-20T07:48:14;4.10;;;3.80;;
8458;SDS011;4266;48.816;9.154;2023-12-20T07:50:40;3.87;;;3.63;;
8458;SDS011;4266;48.816;9.154;2023-12-20T07:53:06;3.67;;;3.40;;
8458;SDS011;4266;48.816;9.154;2023-12-20T07:55:31;4.10;;;3.80;;
8458;SDS011;4266;48.816;9.154;2023-12-20T07:57:57;3.70;;;3.40;;
8458;SDS011;4266;48.816;9.154;2023-12-20T08:00:23;3.87;;;3.67;;
8458;SDS011;4266;48.816;9.154;2023-12-20T08:02:48;4.85;;;4.53;;
8458;SDS011;4266;48.816;9.154;2023-12-20T08:05:14;4.30;;;3.90;;
8458;SDS011;4266;48.816;9.154;2023-12-20T08:07:40;4.00;;;3.70;;
8458;SDS011;4266;48.816;9.154;2023-12-20T08:10:06;3.80;;;3.50;;
8458;SDS011;4266;48.816;9.154;2023-12-20T08:12:33;3.93;;;3.63;;
8458;SDS011;4266;48.816;9.154;2023-12-20T08:14:58;4.30;;;4.00;;
8458;SDS011;4266;48.816;9.154;2023-12-20T08:17:24;5.90;;;4.13;;
8458;SDS011;4266;48.816;9.154;2023-12-20T08:19:50;4.23;;;3.93;;
8458;SDS011;4266;48.816;9.154;2023-12-20T08:22:15;4.90;;;4.50;;
8458;SDS011;4266;48.816;9.154;2023-12-20T08:24:41;5.00;;;4.47;;
8458;SDS011;4266;48.816;9.154;2023-12-20T08:27:07;5.03;;;4.60;;
8458;SDS011;4266;48.816;9.154;2023-12-20T08:29:32;4.30;;;4.00;;
8458;SDS011;4266;48.816;9.154;2023-12-20T08:31:58;4.60;;;4.20;;
8458;SDS011;4266;48.816;9.154;2023-12-20T08:34:24;5.57;;;4.30;;
8458;SDS011;4266;48.816;9.154;2023-12-20T08:36:50;4.20;;;3.90;;
8458;SDS011;4266;48.816;9.154;2023-12-20T08:39:17;4.70;;;4.30;;
8458;SDS011;4266;48.816;9.154;2023-12-20T08:41:42;3.90;;;3.60;;
8458;SDS011;4266;48.816;9.154;2023-12-20T08:44:09;4.60;;;4.30;;
8458;SDS011;4266;48.816;9.154;2023-12-20T08:46:34;5.30;;;4.13;;
8458;SDS011;4266;48.816;9.154;2023-12-20T08:49:00;4.27;;;3.93;;
8458;SDS011;4266;48.816;9.154;2023-12-20T08:51:25;4.03;;;3.73;;
8458;SDS011;4266;48.816;9.154;2023-12-20T08:53:51;3.07;;;2.90;;
8458;SDS011;4266;48.816;9.154;2023-12-20T08:56:17;3.83;;;3.37;;
8458;SDS011;4266;48.816;9.154;2023-12-20T08:58:44;3.37;;;3.00;;
8458;SDS011;4266;48.816;9.154;2023-12-20T09:01:09;3.37;;;3.10;;
8458;SDS011;4266;48.816;9.154;2023-12-20T09:03:34;3.20;;;2.90;;
8458;SDS011;4266;48.816;9.154;2023-12-20T09:06:00;6.13;;;3.00;;
8458;SDS011;4266;48.816;9.154;2023-12-20T09:08:26;3.33;;;2.67;;
8458;SDS011;4266;48.816;9.154;2023-12-20T09:10:51;2.90;;;2.70;;
8458;SDS011;4266;48.816;9.154;2023-12-20T09:13:17;2.80;;;2.60;;
8458;SDS011;4266;48.816;9.154;2023-12-20T09:15:43;2.87;;;2.65;;
8458;SDS011;4266;48.816;9.154;2023-12-20T09:18:08;3.00;;;2.80;;
8458;SDS011;4266;48.816;9.154;2023-12-20T09:20:34;2.72;;;2.53;;
8458;SDS011;4266;48.816;9.154;2023-12-20T09:23:01;2.67;;;2.47;;
8458;SDS011;4266;48.816;9.154;2023-12-20T09:25:26;2.80;;;2.58;;
8458;SDS011;4266;48.816;9.154;2023-12-20T09:27:52;5.43;;;2.97;;
8458;SDS011;4266;48.816;9.154;2023-12-20T09:30:18;4.10;;;2.58;;
8458;SDS011;4266;48.816;9.154;2023-12-20T09:32:43;3.40;;;2.37;;
8458;SDS011;4266;48.816;9.154;2023-12-20T09:35:09;4.50;;;2.50;;
8458;SDS011;4266;48.816;9.154;2023-12-20T09:37:35;2.53;;;2.33;;
8458;SDS011;4266;48.816;9.154;2023-12-20T09:40:00;3.35;;;2.45;;
8458;SDS011;4266;48.816;9.154;2023-12-20T09:42:31;3.05;;;2.40;;
8458;SDS011;4266;48.816;9.154;2023-12-20T09:44:55;4.97;;;2.40;;
8458;SDS011;4266;48.816;9.154;2023-12-20T09:47:21;4.50;;;2.65;;
8458;SDS011;4266;48.816;9.154;2023-12-20T09:49:47;5.20;;;2.20;;
8458;SDS011;4266;48.816;9.154;2023-12-20T09:52:12;4.50;;;2.75;;
8458;SDS011;4266;48.816;9.154;2023-12-20T09:54:38;3.03;;;2.33;;
8458;SDS011;4266;48.816;9.154;2023-12-20T09:57:04;3.17;;;2.37;;
8458;SDS011;4266;48.816;9.154;2023-12-20T09:59:30;3.70;;;2.25;;
8458;SDS011;4266;48.816;9.154;2023-12-20T10:01:56;2.58;;;2.20;;
8458;SDS011;4266;48.816;9.154;2023-12-20T10:04:22;4.40;;;2.55;;
8458;SDS011;4266;48.816;9.154;2023-12-20T10:06:48;4.20;;;2.55;;
8458;SDS011;4266;48.816;9.154;2023-12-20T10:09:14;5.20;;;2.15;;
8458;SDS011;4266;48.816;9.154;2023-12-20T10:11:39;4.60;;;2.53;;
8458;SDS011;4266;48.816;9.154;2023-12-20T10:14:05;4.55;;;2.37;;
8458;SDS011;4266;48.816;9.154;2023-12-20T10:16:31;5.18;;;2.30;;
8458;SDS011;4266;48.816;9.154;2023-12-20T10:18:56;4.75;;;1.77;;
8458;SDS011;4266;48.816;9.154;2023-12-20T10:21:22;10.32;;;2.80;;
8458;SDS011;4266;48.816;9.154;2023-12-20T10:23:49;6.35;;;2.47;;
8458;SDS011;4266;48.816;9.154;2023-12-20T10:26:19;5.40;;;2.60;;
8458;SDS011;4266;48.816;9.154;2023-12-20T10:28:45;4.18;;;2.20;;
8458;SDS011;4266;48.816;9.154;2023-12-20T10:31:10;4.78;;;2.28;;
8458;SDS011;4266;48.816;9.154;2023-12-20T10:33:36;6.00;;;2.47;;
8458;SDS011;4266;48.816;9.154;2023-12-20T10:36:02;6.37;;;2.50;;
8458;SDS011;4266;48.816;9.154;2023-12-20T10:38:28;5.03;;;2.60;;
8458;SDS011;4266;48.816;9.154;2023-12-20T10:40:54;6.73;;;2.77;;
8458;SDS011;4266;48.816;9.154;2023-12-20T10:43:20;4.63;;;2.60;;
8458;SDS011;4266;48.816;9.154;2023-12-20T10:45:45;5.77;;;2.80;;
8458;SDS011;4266;48.816;9.154;2023-12-20T10:48:11;5.73;;;3.00;;
8458;SDS011;4266;48.816;9.154;2023-12-20T10:50:38;5.73;;;3.00;;
8458;SDS011;4266;48.816;9.154;2023-12-20T10:53:04;4.60;;;2.83;;
8458;SDS011;4266;48.816;9.154;2023-12-20T10:55:30;5.23;;;2.97;;
8458;SDS011;4266;48.816;9.154;2023-12-20T10:58:00;4.33;;;2.73;;
8458;SDS011;4266;48.816;9.154;2023-12-20T11:00:25;3.90;;;2.60;;
8458;SDS011;4266;48.816;9.154;2023-12-20T11:02:51;5.40;;;3.07;;
8458;SDS011;4266;48.816;9.154;2023-12-20T11:05:22;4.37;;;2.57;;
8458;SDS011;4266;48.816;9.154;2023-12-20T11:07:50;4.03;;;2.70;;
8458;SDS011;4266;48.816;9.154;2023-12-20T11:10:18;8.63;;;3.23;;
8458;SDS011;4266;48.816;9.154;2023-12-20T11:12:49;6.33;;;2.90;;
8458;SDS011;4266;48.816;9.154;2023-12-20T11:15:17;8.20;;;2.70;;
8458;SDS011;4266;48.816;9.154;2023-12-20T11:17:44;5.30;;;2.60;;
8458;SDS011;4266;48.816;9.154;2023-12-20T11:20:09;5.57;;;3.10;;
8458;SDS011;4266;48.816;9.154;2023-12-20T11:22:36;4.87;;;2.67;;
8458;SDS011;4266;48.816;9.154;2023-12-20T11:25:05;8.63;;;3.00;;
8458;SDS011;4266;48.816;9.154;2023-12-20T11:27:31;4.93;;;2.87;;
8458;SDS011;4266;48.816;9.154;2023-12-20T11:29:57;4.33;;;2.70;;
8458;SDS011;4266;48.816;9.154;2023-12-20T11:32:27;5.43;;;2.67;;
8458;SDS011;4266;48.816;9.154;2023-12-20T11:34:54;5.53;;;3.00;;
8458;SDS011;4266;48.816;9.154;2023-12-20T11:37:28;9.27;;;3.20;;
8458;SDS011;4266;48.816;9.154;2023-12-20T11:39:55;6.17;;;3.27;;
8458;SDS011;4266;48.816;9.154;2023-12-20T11:42:21;8.57;;;3.17;;
8458;SDS011;4266;48.816;9.154;2023-12-20T11:44:47;5.77;;;2.97;;
8458;SDS011;4266;48.816;9.154;2023-12-20T11:47:12;6.23;;;3.40;;
8458;SDS011;4266;48.816;9.154;2023-12-20T11:49:39;6.20;;;3.73;;
8458;SDS011;4266;48.816;9.154;2023-12-20T11:52:05;7.47;;;3.57;;
8458;SDS011;4266;48.816;9.154;2023-12-20T11:54:30;3.77;;;3.20;;
8458;SDS011;4266;48.816;9.154;2023-12-20T11:56:56;3.53;;;3.23;;
8458;SDS011;4266;48.816;9.154;2023-12-20T11:59:23;6.27;;;3.57;;
8458;SDS011;4266;48.816;9.154;2023-12-20T12:01:48;9.30;;;4.13;;
8458;SDS011;4266;48.816;9.154;2023-12-20T12:04:14;7.70;;;3.63;;
8458;SDS011;4266;48.816;9.154;2023-12-20T12:06:39;9.60;;;3.50;;
8458;SDS011;4266;48.816;9.154;2023-12-20T12:09:05;5.30;;;3.57;;
8458;SDS011;4266;48.816;9.154;2023-12-20T12:11:31;9.70;;;3.50;;
8458;SDS011;4266;48.816;9.154;2023-12-20T12:13:56;6.33;;;3.47;;
8458;SDS011;4266;48.816;9.154;2023-12-20T12:16:22;5.87;;;3.50;;
8458;SDS011;4266;48.816;9.154;2023-12-20T12:21:21;8.13;;;3.57;;
8458;SDS011;4266;48.816;9.154;2023-12-20T12:23:47;7.33;;;3.57;;
8458;SDS011;4266;48.816;9.154;2023-12-20T12:26:13;5.87;;;3.60;;
8458;SDS011;4266;48.816;9.154;2023-12-20T12:28:40;9.40;;;3.60;;
8458;SDS011;4266;48.816;9.154;2023-12-20T12:31:05;5.80;;;3.53;;
8458;SDS011;4266;48.816;9.154;2023-12-20T12:33:31;6.33;;;3.40;;
8458;SDS011;4266;48.816;9.154;2023-12-20T12:35:56;4.80;;;3.23;;
8458;SDS011;4266;48.816;9.154;2023-12-20T12:38:22;8.53;;;2.90;;
8458;SDS011;4266;48.816;9.154;2023-12-20T12:40:48;4.67;;;3.20;;
8458;SDS011;4266;48.816;9.154;2023-12-20T12:43:13;5.63;;;3.70;;
8458;SDS011;4266;48.816;9.154;2023-12-20T12:45:39;9.33;;;3.03;;
8458;SDS011;4266;48.816;9.154;2023-12-20T12:48:05;5.87;;;3.00;;
8458;SDS011;4266;48.816;9.154;2023-12-20T12:50:32;7.50;;;2.80;;
8458;SDS011;4266;48.816;9.154;2023-12-20T12:52:58;7.50;;;2.90;;
8458;SDS011;4266;48.816;9.154;2023-12-20T12:55:23;5.17;;;2.63;;
8458;SDS011;4266;48.816;9.154;2023-12-20T12:57:49;4.23;;;2.60;;
8458;SDS011;4266;48.816;9.154;2023-12-20T13:00:15;4.70;;;2.83;;
8458;SDS011;4266;48.816;9.154;2023-12-20T13:02:41;6.87;;;3.20;;
8458;SDS011;4266;48.816;9.154;2023-12-20T13:05:08;4.37;;;3.00;;
8458;SDS011;4266;48.816;9.154;2023-12-20T13:07:34;5.13;;;3.40;;
8458;SDS011;4266;48.816;9.154;2023-12-20T13:10:00;6.60;;;3.30;;
8458;SDS011;4266;48.816;9.154;2023-12-20T13:12:25;5.73;;;3.07;;
8458;SDS011;4266;48.816;9.154;2023-12-20T13:14:51;5.27;;;3.50;;
8458;SDS011;4266;48.816;9.154;2023-12-20T13:17:17;6.00;;;3.47;;
8458;SDS011;4266;48.816;9.154;2023-12-20T13:19:42;5.47;;;2.70;;
8458;SDS011;4266;48.816;9.154;2023-12-20T13:22:08;5.77;;;3.40;;
8458;SDS011;4266;48.816;9.154;2023-12-20T13:24:34;6.37;;;3.73;;
8458;SDS011;4266;48.816;9.154;2023-12-20T13:26:59;4.10;;;3.33;;
8458;SDS011;4266;48.816;9.154;2023-12-20T13:29:25;4.10;;;2.50;;
8458;SDS011;4266;48.816;9.154;2023-12-20T13:31:53;4.13;;;2.90;;
8458;SDS011;4266;48.816;9.154;2023-12-20T13:34:19;6.17;;;3.00;;
8458;SDS011;4266;48.816;9.154;2023-12-20T13:36:52;5.30;;;2.77;;
8458;SDS011;4266;48.816;9.154;2023-12-20T13:39:17;4.40;;;2.53;;
8458;SDS011;4266;48.816;9.154;2023-12-20T13:41:43;2.90;;;2.47;;
8458;SDS011;4266;48.816;9.154;2023-12-20T13:44:09;7.97;;;2.80;;
8458;SDS011;4266;48.816;9.154;2023-12-20T13:46:35;4.00;;;2.50;;
8458;SDS011;4266;48.816;9.154;2023-12-20T13:49:00;5.47;;;2.80;;
8458;SDS011;4266;48.816;9.154;2023-12-20T13:51:32;5.57;;;2.80;;
8458;SDS011;4266;48.816;9.154;2023-12-20T13:53:58;3.93;;;2.70;;
8458;SDS011;4266;48.816;9.154;2023-12-20T13:56:25;6.03;;;2.90;;
8458;SDS011;4266;48.816;9.154;2023-12-20T13:58:50;7.30;;;3.30;;
8458;SDS011;4266;48.816;9.154;2023-12-20T14:01:16;5.30;;;3.17;;
8458;SDS011;4266;48.816;9.154;2023-12-20T14:03:41;5.50;;;3.20;;
8458;SDS011;4266;48.816;9.154;2023-12-20T14:06:07;5.10;;;3.30;;
8458;SDS011;4266;48.816;9.154;2023-12-20T14:08:33;6.23;;;3.10;;
8458;SDS011;4266;48.816;9.154;2023-12-20T14:10:58;6.63;;;3.53;;
8458;SDS011;4266;48.816;9.154;2023-12-20T14:13:24;3.73;;;3.33;;
8458;SDS011;4266;48.816;9.154;2023-12-20T14:15:50;8.73;;;3.60;;
8458;SDS011;4266;48.816;9.154;2023-12-20T14:18:15;5.00;;;3.20;;
8458;SDS011;4266;48.816;9.154;2023-12-20T14:20:41;5.60;;;3.10;;
8458;SDS011;4266;48.816;9.154;2023-12-20T14:23:07;6.07;;;3.50;;
8458;SDS011;4266;48.816;9.154;2023-12-20T14:25:32;7.77;;;3.37;;
8458;SDS011;4266;48.816;9.154;2023-12-20T14:27:58;6.87;;;3.83;;
8458;SDS011;4266;48.816;9.154;2023-12-20T14:30:24;4.97;;;3.40;;
8458;SDS011;4266;48.816;9.154;2023-12-20T14:32:50;5.30;;;3.70;;
8458;SDS011;4266;48.816;9.154;2023-12-20T14:35:15;5.67;;;3.27;;
8458;SDS011;4266;48.816;9.154;2023-12-20T14:37:42;6.17;;;3.40;;
8458;SDS011;4266;48.816;9.154;2023-12-20T14:40:08;8.23;;;3.60;;
8458;SDS011;4266;48.816;9.154;2023-12-20T14:42:35;4.80;;;3.67;;
8458;SDS011;4266;48.816;9.154;2023-12-20T14:45:00;5.57;;;3.07;;
8458;SDS011;4266;48.816;9.154;2023-12-20T14:47:26;8.07;;;3.83;;
8458;SDS011;4266;48.816;9.154;2023-12-20T14:49:51;9.17;;;3.50;;
8458;SDS011;4266;48.816;9.154;2023-12-20T14:52:18;4.73;;;3.40;;
8458;SDS011;4266;48.816;9.154;2023-12-20T14:54:44;8.40;;;3.40;;
8458;SDS011;4266;48.816;9.154;2023-12-20T14:57:10;6.03;;;3.80;;
8458;SDS011;4266;48.816;9.154;2023-12-20T14:59:36;4.23;;;3.20;;
8458;SDS011;4266;48.816;9.154;2023-12-20T15:02:01;3.90;;;3.43;;
8458;SDS011;4266;48.816;9.154;2023-12-20T15:04:28;5.97;;;3.33;;
8458;SDS011;4266;48.816;9.154;2023-12-20T15:06:54;8.40;;;3.40;;
8458;SDS011;4266;48.816;9.154;2023-12-20T15:09:19;6.13;;;3.53;;